createdAt,value
2019-05-15T00:00:08.911Z,6.67
2019-05-15T00:02:38.827Z,6.39
2019-05-15T00:05:09.072Z,6.41
2019-05-15T00:07:39.320Z,6.35
2019-05-15T00:10:08.826Z,6.38
2019-05-15T00:12:39.674Z,6.37
2019-05-15T00:15:09.235Z,6.41
2019-05-15T00:17:39.321Z,6.46
2019-05-15T00:20:09.880Z,6.58
2019-05-15T00:22:39.225Z,6.61
2019-05-15T00:25:09.383Z,6.67
2019-05-15T00:27:38.858Z,6.63
2019-05-15T00:30:11.001Z,6.63
2019-05-15T00:32:39.643Z,6.53
2019-05-15T00:35:09.559Z,6.46
2019-05-15T00:37:38.842Z,6.62
2019-05-15T00:40:08.953Z,6.38
2019-05-15T00:42:38.383Z,6.48
2019-05-15T00:45:09.567Z,6.50
2019-05-15T00:47:39.692Z,6.46
2019-05-15T00:50:09.827Z,6.55
2019-05-15T00:52:39.356Z,6.51
2019-05-15T00:55:08.961Z,6.52
2019-05-15T00:57:39.167Z,6.52
2019-05-15T01:00:09.724Z,6.58
2019-05-15T01:02:38.862Z,6.49
2019-05-15T01:05:08.537Z,6.27
2019-05-15T01:07:39.153Z,6.10
2019-05-15T01:10:09.811Z,6.27
2019-05-15T01:12:38.478Z,6.35
2019-05-15T01:15:10.461Z,6.27
2019-05-15T01:17:39.412Z,6.15
2019-05-15T01:20:08.652Z,6.09
2019-05-15T01:22:39.287Z,6.00
2019-05-15T01:25:08.692Z,5.93
2019-05-15T01:27:38.553Z,5.81
2019-05-15T01:30:09.354Z,5.81
2019-05-15T01:32:39.386Z,5.75
2019-05-15T01:35:09.448Z,5.65
2019-05-15T01:37:39.243Z,5.58
2019-05-15T01:40:09.009Z,5.56
2019-05-15T01:42:38.874Z,5.43
2019-05-15T01:45:08.833Z,5.33
2019-05-15T01:47:38.825Z,5.35
2019-05-15T01:50:09.291Z,5.43
2019-05-15T01:52:39.066Z,5.42
2019-05-15T01:55:09.152Z,5.38
2019-05-15T01:57:38.423Z,5.34
2019-05-15T02:00:08.870Z,5.26
2019-05-15T02:02:39.041Z,5.24
2019-05-15T02:05:09.375Z,5.28
2019-05-15T02:07:39.169Z,4.81
2019-05-15T02:10:09.185Z,5.00
2019-05-15T02:12:38.788Z,4.96
2019-05-15T02:15:08.658Z,5.20
2019-05-15T02:17:39.178Z,5.15
2019-05-15T02:20:08.347Z,5.06
2019-05-15T02:22:42.138Z,4.90
2019-05-15T02:25:08.685Z,4.70
2019-05-15T02:27:39.310Z,4.62
2019-05-15T02:30:18.120Z,4.63
2019-05-15T02:32:39.460Z,4.63
2019-05-15T02:35:10.047Z,4.84
2019-05-15T02:37:41.238Z,4.66
2019-05-15T02:40:10.166Z,4.45
2019-05-15T02:42:39.940Z,4.66
2019-05-15T02:45:10.437Z,4.70
2019-05-15T02:47:39.744Z,4.59
2019-05-15T02:50:10.754Z,4.67
2019-05-15T02:52:44.426Z,4.79
2019-05-15T02:55:09.903Z,4.75
2019-05-15T02:57:39.299Z,4.68
2019-05-15T03:00:11.327Z,4.80
2019-05-15T03:02:41.148Z,4.79
2019-05-15T03:05:10.355Z,5.20
2019-05-15T03:07:40.238Z,4.78
2019-05-15T03:10:10.435Z,4.80
2019-05-15T03:12:40.672Z,4.68
2019-05-15T03:15:10.132Z,4.60
2019-05-15T03:17:40.705Z,4.61
2019-05-15T03:20:11.220Z,4.41
2019-05-15T03:22:40.631Z,4.47
2019-05-15T03:25:11.294Z,4.40
2019-05-15T03:27:40.174Z,4.39
2019-05-15T03:30:13.134Z,4.30
2019-05-15T03:32:46.758Z,4.31
2019-05-15T03:35:14.125Z,4.38
2019-05-15T03:37:40.461Z,4.33
2019-05-15T03:40:10.175Z,4.00
2019-05-15T03:42:39.855Z,4.21
2019-05-15T03:45:10.430Z,4.05
2019-05-15T03:47:40.160Z,4.00
2019-05-15T03:50:10.756Z,4.25
2019-05-15T03:52:40.012Z,4.08
2019-05-15T03:55:10.572Z,3.96
2019-05-15T03:57:40.374Z,4.11
2019-05-15T04:00:10.144Z,3.96
2019-05-15T04:02:39.668Z,3.96
2019-05-15T04:05:11.753Z,4.00
2019-05-15T04:07:39.694Z,4.05
2019-05-15T04:10:10.117Z,4.08
2019-05-15T04:12:40.437Z,3.80
2019-05-15T04:15:10.937Z,3.67
2019-05-15T04:17:40.486Z,4.12
2019-05-15T04:20:10.373Z,4.03
2019-05-15T04:22:40.297Z,3.89
2019-05-15T04:25:10.012Z,4.08
2019-05-15T04:27:40.934Z,3.95
2019-05-15T04:30:10.921Z,4.13
2019-05-15T04:32:40.395Z,4.15
2019-05-15T04:35:09.699Z,4.21
2019-05-15T04:37:40.586Z,4.29
2019-05-15T04:40:09.638Z,4.35
2019-05-15T04:42:39.869Z,4.29
2019-05-15T04:45:10.197Z,4.95
2019-05-15T04:47:39.781Z,5.88
2019-05-15T04:50:09.427Z,6.90
2019-05-15T04:52:39.444Z,6.94
2019-05-15T04:55:10.181Z,7.84
2019-05-15T04:57:40.042Z,8.18
2019-05-15T05:00:10.164Z,8.66
2019-05-15T05:02:40.120Z,8.84
2019-05-15T05:05:10.325Z,9.03
2019-05-15T05:07:39.537Z,9.25
2019-05-15T05:10:09.860Z,9.41
2019-05-15T05:12:41.888Z,9.60
2019-05-15T05:15:08.904Z,9.83
2019-05-15T05:17:39.232Z,9.79
2019-05-15T05:20:08.239Z,9.65
2019-05-15T05:22:39.384Z,10.13
2019-05-15T05:25:08.296Z,10.11
2019-05-15T05:27:38.271Z,10.34
2019-05-15T05:30:08.527Z,10.49
2019-05-15T05:32:39.078Z,10.20
2019-05-15T05:35:08.559Z,10.56
2019-05-15T05:37:39.119Z,10.46
2019-05-15T05:40:08.410Z,10.82
2019-05-15T05:42:38.890Z,10.97
2019-05-15T05:45:09.296Z,10.98
2019-05-15T05:47:38.537Z,11.09
2019-05-15T05:50:08.564Z,11.42
2019-05-15T05:52:39.126Z,11.39
2019-05-15T05:55:08.770Z,11.29
2019-05-15T05:57:38.301Z,11.62
2019-05-15T06:00:09.295Z,11.85
2019-05-15T06:02:46.850Z,11.84
2019-05-15T06:05:08.207Z,12.43
2019-05-15T06:07:38.656Z,12.33
2019-05-15T06:10:08.915Z,12.56
2019-05-15T06:12:38.823Z,12.63
2019-05-15T06:15:08.814Z,12.79
2019-05-15T06:17:39.149Z,12.45
2019-05-15T06:20:08.231Z,12.18
2019-05-15T06:22:38.761Z,12.66
2019-05-15T06:25:11.435Z,13.22
2019-05-15T06:27:39.111Z,13.23
2019-05-15T06:30:08.940Z,12.89
2019-05-15T06:32:39.771Z,12.63
2019-05-15T06:35:09.040Z,12.84
2019-05-15T06:37:39.684Z,13.01
2019-05-15T06:40:08.593Z,12.50
2019-05-15T06:42:39.246Z,12.73
2019-05-15T06:45:08.330Z,12.12
2019-05-15T06:47:39.213Z,12.13
2019-05-15T06:50:08.745Z,12.05
2019-05-15T06:52:38.038Z,11.83
2019-05-15T06:55:09.154Z,11.76
2019-05-15T06:57:39.834Z,11.77
2019-05-15T07:00:10.168Z,11.69
2019-05-15T07:02:38.636Z,11.89
2019-05-15T07:05:08.187Z,11.83
2019-05-15T07:07:38.652Z,11.81
2019-05-15T07:10:09.028Z,11.56
2019-05-15T07:12:39.067Z,11.59
2019-05-15T07:15:09.200Z,11.94
2019-05-15T07:17:39.258Z,12.03
2019-05-15T07:20:11.360Z,11.79
2019-05-15T07:22:39.850Z,12.08
2019-05-15T07:25:10.027Z,12.23
2019-05-15T07:27:39.261Z,12.34
2019-05-15T07:30:11.666Z,12.27
2019-05-15T07:32:39.666Z,11.88
2019-05-15T07:35:09.438Z,12.03
2019-05-15T07:37:38.716Z,12.28
2019-05-15T07:40:09.078Z,11.76
2019-05-15T07:42:40.081Z,11.98
2019-05-15T07:45:10.644Z,12.06
2019-05-15T07:47:39.218Z,12.01
2019-05-15T07:50:10.196Z,11.81
2019-05-15T07:52:40.342Z,11.79
2019-05-15T07:55:09.697Z,11.99
2019-05-15T07:57:39.598Z,12.20
2019-05-15T08:00:13.894Z,12.25
2019-05-15T08:02:42.451Z,12.39
2019-05-15T08:05:11.685Z,12.07
2019-05-15T08:07:40.325Z,11.91
2019-05-15T08:10:09.692Z,12.27
2019-05-15T08:12:39.197Z,12.23
2019-05-15T08:15:10.576Z,12.49
2019-05-15T08:17:59.000Z,12.54
2019-05-15T08:20:12.060Z,12.08
2019-05-15T08:22:40.628Z,12.51
2019-05-15T08:25:20.683Z,12.35
2019-05-15T08:27:41.523Z,12.51
2019-05-15T08:30:12.852Z,12.67
2019-05-15T08:32:41.374Z,12.46
2019-05-15T08:35:12.730Z,12.70
2019-05-15T08:37:41.525Z,12.60
2019-05-15T08:40:10.596Z,12.27
2019-05-15T08:42:42.026Z,12.71
2019-05-15T08:45:09.946Z,12.99
2019-05-15T08:47:38.774Z,12.77
2019-05-15T08:50:08.851Z,12.63
2019-05-15T08:52:39.453Z,12.51
2019-05-15T08:55:09.169Z,13.22
2019-05-15T08:57:38.386Z,12.68
2019-05-15T09:00:09.701Z,12.80
2019-05-15T09:02:38.820Z,13.30
2019-05-15T09:05:08.889Z,12.94
2019-05-15T09:07:38.536Z,13.01
2019-05-15T09:10:09.859Z,12.77
2019-05-15T09:12:39.050Z,12.84
2019-05-15T09:15:10.392Z,13.07
2019-05-15T09:17:39.820Z,12.98
2019-05-15T09:20:09.461Z,13.18
2019-05-15T09:22:38.481Z,13.05
2019-05-15T09:25:09.050Z,12.82
2019-05-15T09:27:38.432Z,12.95
2019-05-15T09:30:11.257Z,13.54
2019-05-15T09:32:39.924Z,13.46
2019-05-15T09:35:10.214Z,13.55
2019-05-15T09:37:38.929Z,13.23
2019-05-15T09:40:09.084Z,13.73
2019-05-15T09:42:38.800Z,13.87
2019-05-15T09:45:09.238Z,13.89
2019-05-15T09:47:39.712Z,13.44
2019-05-15T09:50:10.039Z,13.14
2019-05-15T09:52:39.350Z,13.16
2019-05-15T09:55:09.576Z,13.24
2019-05-15T09:57:38.916Z,13.45
2019-05-15T10:00:09.171Z,13.78
2019-05-15T10:02:39.429Z,13.71
2019-05-15T10:05:11.256Z,13.72
2019-05-15T10:07:40.442Z,13.54
2019-05-15T10:10:10.024Z,14.07
2019-05-15T10:12:38.896Z,13.85
2019-05-15T10:15:11.817Z,13.69
2019-05-15T10:17:40.399Z,14.10
2019-05-15T10:20:10.003Z,13.70
2019-05-15T10:22:38.423Z,14.17
2019-05-15T10:25:08.555Z,13.92
2019-05-15T10:27:39.535Z,14.25
2019-05-15T10:30:09.207Z,13.65
2019-05-15T10:32:39.547Z,13.88
2019-05-15T10:35:24.007Z,13.88
2019-05-15T10:37:40.824Z,14.18
2019-05-15T10:40:10.098Z,14.25
2019-05-15T10:42:39.744Z,13.81
2019-05-15T10:45:09.885Z,14.52
2019-05-15T10:47:39.013Z,14.98
2019-05-15T10:50:08.284Z,14.16
2019-05-15T10:52:38.210Z,14.22
2019-05-15T10:55:09.147Z,14.10
2019-05-15T10:57:42.723Z,14.40
2019-05-15T11:00:09.525Z,14.50
2019-05-15T11:02:39.443Z,14.45
2019-05-15T11:05:11.990Z,14.19
2019-05-15T11:07:40.603Z,14.77
2019-05-15T11:10:09.574Z,14.95
2019-05-15T11:12:38.743Z,14.94
2019-05-15T11:15:11.316Z,14.96
2019-05-15T11:17:40.210Z,14.56
2019-05-15T11:20:09.074Z,14.87
2019-05-15T11:22:42.264Z,15.17
2019-05-15T11:25:11.230Z,15.08
2019-05-15T11:27:39.719Z,14.70
2019-05-15T11:30:09.960Z,14.45
2019-05-15T11:32:39.206Z,14.49
2019-05-15T11:35:08.545Z,14.71
2019-05-15T11:37:43.833Z,15.21
2019-05-15T11:40:10.313Z,14.92
2019-05-15T11:42:39.576Z,14.90
2019-05-15T11:45:10.709Z,14.94
2019-05-15T11:47:40.045Z,15.03
2019-05-15T11:50:09.398Z,14.85
2019-05-15T11:52:40.493Z,14.68
2019-05-15T11:55:08.700Z,14.87
2019-05-15T11:57:46.087Z,14.84
2019-05-15T12:00:15.014Z,15.07
2019-05-15T12:02:38.674Z,14.65
2019-05-15T12:05:09.234Z,14.72
2019-05-15T12:07:38.300Z,15.39
2019-05-15T12:10:10.608Z,14.77
2019-05-15T12:12:38.658Z,14.88
2019-05-15T12:15:08.371Z,14.69
2019-05-15T12:17:39.091Z,14.69
2019-05-15T12:20:10.998Z,15.08
2019-05-15T12:22:39.855Z,14.93
2019-05-15T12:27:40.445Z,15.02
2019-05-15T12:30:12.870Z,15.01
2019-05-15T12:32:41.367Z,14.52
2019-05-15T12:35:10.635Z,14.88
2019-05-15T12:37:40.154Z,15.15
2019-05-15T13:00:14.296Z,15.34
2019-05-15T13:02:42.738Z,15.46
2019-05-15T13:05:12.490Z,15.19
2019-05-15T13:07:40.946Z,15.39
2019-05-15T13:10:10.050Z,15.11
2019-05-15T13:12:54.160Z,15.58
2019-05-15T13:15:09.465Z,15.58
2019-05-15T13:17:38.824Z,15.64
2019-05-15T13:20:08.574Z,15.50
2019-05-15T13:22:39.426Z,15.44
2019-05-15T13:25:08.634Z,15.65
2019-05-15T13:27:38.206Z,15.92
2019-05-15T13:30:09.137Z,15.95
2019-05-15T13:32:40.684Z,15.66
2019-05-15T13:35:09.938Z,15.56
2019-05-15T13:37:38.995Z,15.06
2019-05-15T13:40:08.184Z,15.57
2019-05-15T13:42:38.877Z,16.02
2019-05-15T13:45:13.008Z,15.67
2019-05-15T13:47:38.987Z,15.70
2019-05-15T13:50:08.097Z,15.40
2019-05-15T13:52:39.052Z,15.89
2019-05-15T13:55:08.594Z,16.01
2019-05-15T13:57:38.255Z,15.89
2019-05-15T14:00:09.607Z,15.80
2019-05-15T14:02:38.885Z,15.76
2019-05-15T14:05:09.535Z,15.95
2019-05-15T14:07:48.807Z,15.58
2019-05-15T14:10:09.763Z,15.70
2019-05-15T14:12:38.586Z,15.74
2019-05-15T14:15:09.028Z,15.54
2019-05-15T14:17:37.793Z,15.46
2019-05-15T14:20:09.023Z,15.74
2019-05-15T14:22:38.936Z,15.86
2019-05-15T14:25:08.950Z,15.96
2019-05-15T14:27:39.749Z,15.78
2019-05-15T14:30:09.856Z,15.79
2019-05-15T14:32:39.411Z,15.76
2019-05-15T14:35:09.591Z,15.68
2019-05-15T14:37:38.264Z,16.26
2019-05-15T14:40:09.188Z,15.83
2019-05-15T14:42:39.479Z,15.36
2019-05-15T14:45:09.256Z,15.51
2019-05-15T14:47:38.856Z,15.92
2019-05-15T14:50:10.213Z,15.97
2019-05-15T14:52:38.797Z,15.99
2019-05-15T14:55:08.300Z,15.92
2019-05-15T14:57:39.155Z,16.42
2019-05-15T15:00:08.784Z,16.33
2019-05-15T15:02:38.939Z,16.29
2019-05-15T15:05:09.129Z,16.13
2019-05-15T15:07:38.604Z,15.89
2019-05-15T15:10:08.274Z,15.88
2019-05-15T15:12:39.799Z,15.73
2019-05-15T15:15:09.576Z,16.13
2019-05-15T15:17:39.106Z,16.05
2019-05-15T15:20:08.100Z,16.11
2019-05-15T15:22:39.125Z,16.05
2019-05-15T15:25:09.662Z,15.88
2019-05-15T15:27:38.970Z,15.91
2019-05-15T15:30:09.462Z,16.05
2019-05-15T15:32:38.413Z,15.66
2019-05-15T15:35:09.403Z,15.61
2019-05-15T15:37:38.510Z,15.92
2019-05-15T15:40:08.577Z,16.05
2019-05-15T15:42:39.518Z,15.97
2019-05-15T15:45:09.242Z,15.99
2019-05-15T15:47:38.910Z,16.03
2019-05-15T15:50:09.531Z,16.08
2019-05-15T15:52:38.779Z,15.75
2019-05-15T15:55:08.946Z,15.60
2019-05-15T15:57:39.763Z,15.82
2019-05-15T16:00:09.791Z,15.97
2019-05-15T16:02:40.966Z,15.83
2019-05-15T16:05:10.052Z,15.87
2019-05-15T16:07:38.950Z,15.86
2019-05-15T16:10:08.725Z,15.77
2019-05-15T16:12:38.705Z,15.89
2019-05-15T16:15:08.817Z,15.59
2019-05-15T16:17:38.454Z,15.88
2019-05-15T16:20:08.892Z,15.98
2019-05-15T16:22:38.244Z,15.60
2019-05-15T16:25:09.713Z,15.43
2019-05-15T16:27:38.457Z,15.61
2019-05-15T16:30:08.480Z,15.56
2019-05-15T16:32:38.772Z,15.54
2019-05-15T16:35:08.489Z,15.69
2019-05-15T16:37:38.897Z,15.63
2019-05-15T16:40:08.120Z,15.49
2019-05-15T16:42:38.572Z,15.68
2019-05-15T16:45:09.314Z,15.65
2019-05-15T16:47:38.795Z,15.78
2019-05-15T16:50:08.881Z,15.78
2019-05-15T16:52:38.843Z,15.68
2019-05-15T16:55:09.725Z,15.47
2019-05-15T16:57:39.109Z,15.64
2019-05-15T17:00:10.030Z,15.60
2019-05-15T17:02:39.686Z,15.37
2019-05-15T17:05:10.044Z,15.31
2019-05-15T17:07:39.127Z,15.18
2019-05-15T17:10:08.763Z,15.45
2019-05-15T17:12:38.747Z,15.23
2019-05-15T17:15:09.290Z,15.35
2019-05-15T17:17:38.663Z,15.14
2019-05-15T17:20:10.223Z,15.13
2019-05-15T17:22:38.960Z,15.30
2019-05-15T17:25:09.291Z,15.34
2019-05-15T17:27:38.092Z,15.29
2019-05-15T17:30:09.464Z,15.18
2019-05-15T17:32:40.031Z,15.21
2019-05-15T17:35:09.866Z,15.33
2019-05-15T17:37:38.915Z,15.33
2019-05-15T17:40:08.720Z,15.41
2019-05-15T17:42:39.019Z,15.44
2019-05-15T17:45:09.284Z,15.39
2019-05-15T17:47:38.750Z,15.26
2019-05-15T17:50:08.629Z,15.05
2019-05-15T17:52:38.825Z,15.20
2019-05-15T17:55:07.891Z,15.05
2019-05-15T17:57:38.840Z,15.06
2019-05-15T18:00:12.474Z,15.05
2019-05-15T18:02:39.367Z,14.89
2019-05-15T18:05:08.409Z,14.73
2019-05-15T18:07:39.015Z,14.50
2019-05-15T18:10:08.575Z,14.50
2019-05-15T18:12:38.907Z,14.33
2019-05-15T18:15:09.033Z,14.28
2019-05-15T18:17:39.280Z,14.28
2019-05-15T18:20:09.880Z,14.04
2019-05-15T18:22:38.974Z,14.04
2019-05-15T18:25:08.973Z,13.89
2019-05-15T18:27:38.811Z,13.86
2019-05-15T18:30:09.312Z,13.78
2019-05-15T18:32:39.203Z,13.58
2019-05-15T18:35:08.524Z,13.44
2019-05-15T18:37:39.372Z,13.47
2019-05-15T18:40:09.767Z,13.20
2019-05-15T18:42:38.946Z,13.23
2019-05-15T18:45:09.252Z,13.15
2019-05-15T18:47:38.888Z,13.00
2019-05-15T18:50:12.659Z,13.00
2019-05-15T18:52:38.678Z,12.89
2019-05-15T18:55:08.030Z,12.77
2019-05-15T18:57:38.613Z,12.77
2019-05-15T19:00:11.088Z,12.65
2019-05-15T19:02:39.625Z,12.62
2019-05-15T19:05:08.603Z,12.51
2019-05-15T19:07:38.401Z,12.35
2019-05-15T19:10:10.345Z,12.31
2019-05-15T19:12:39.139Z,12.37
2019-05-15T19:15:09.393Z,12.30
2019-05-15T19:17:38.809Z,12.36
2019-05-15T19:20:08.688Z,12.32
2019-05-15T19:22:40.695Z,12.32
2019-05-15T19:25:09.027Z,12.28
2019-05-15T19:27:39.296Z,12.27
2019-05-15T19:30:09.150Z,12.06
2019-05-15T19:32:38.827Z,12.10
2019-05-15T19:35:08.583Z,12.12
2019-05-15T19:37:38.343Z,11.92
2019-05-15T19:40:08.538Z,11.85
2019-05-15T19:42:38.431Z,11.92
2019-05-15T19:45:08.928Z,11.86
2019-05-15T19:47:38.685Z,11.84
2019-05-15T19:50:08.724Z,11.70
2019-05-15T19:52:37.367Z,11.64
2019-05-15T19:55:08.566Z,11.59
2019-05-15T19:57:38.702Z,11.82
2019-05-15T20:00:08.621Z,11.43
2019-05-15T20:02:38.147Z,11.64
2019-05-15T20:05:09.193Z,11.32
2019-05-15T20:07:38.977Z,11.54
2019-05-15T20:10:09.423Z,11.47
2019-05-15T20:12:38.950Z,11.21
2019-05-15T20:15:09.393Z,11.05
2019-05-15T20:17:38.670Z,11.20
2019-05-15T20:20:09.128Z,11.01
2019-05-15T20:22:40.338Z,10.73
2019-05-15T20:25:08.822Z,10.91
2019-05-15T20:27:39.077Z,10.56
2019-05-15T20:30:08.660Z,10.82
2019-05-15T20:32:38.748Z,10.93
2019-05-15T20:35:08.640Z,11.14
2019-05-15T20:37:39.080Z,10.93
2019-05-15T20:40:09.235Z,10.80
2019-05-15T20:42:38.467Z,10.96
2019-05-15T20:45:12.046Z,10.93
2019-05-15T20:47:39.309Z,10.92
2019-05-15T20:50:09.072Z,10.98
2019-05-15T20:52:39.441Z,11.07
2019-05-15T20:55:09.317Z,10.99
2019-05-15T20:57:40.772Z,11.02
2019-05-15T21:00:10.550Z,10.92
2019-05-15T21:02:39.318Z,10.83
2019-05-15T21:05:08.918Z,10.68
2019-05-15T21:07:40.062Z,10.64
2019-05-15T21:10:09.705Z,10.62
2019-05-15T21:12:41.093Z,10.53
2019-05-15T21:15:09.671Z,10.50
2019-05-15T21:17:39.414Z,10.50
2019-05-15T21:20:09.574Z,10.50
2019-05-15T21:22:40.194Z,10.48
2019-05-15T21:25:10.956Z,10.47
2019-05-15T21:27:42.424Z,10.51
2019-05-15T21:30:10.780Z,10.46
2019-05-15T21:32:39.270Z,10.48
2019-05-15T21:35:09.123Z,10.52
2019-05-15T21:37:38.872Z,10.48
2019-05-15T21:40:09.327Z,10.53
2019-05-15T21:42:39.012Z,10.56
2019-05-15T21:45:14.178Z,10.74
2019-05-15T21:47:39.809Z,10.82
2019-05-15T21:50:08.677Z,10.65
2019-05-15T21:52:39.115Z,10.73
2019-05-15T21:55:09.637Z,10.82
2019-05-15T21:57:40.140Z,10.80
2019-05-15T22:00:14.651Z,10.80
2019-05-15T22:02:43.355Z,10.66
2019-05-15T22:05:12.019Z,10.66
2019-05-15T22:07:40.996Z,10.70
2019-05-15T22:10:10.995Z,10.62
2019-05-15T22:12:39.647Z,10.74
2019-05-15T22:15:09.348Z,10.58
2019-05-15T22:17:38.967Z,10.47
2019-05-15T22:20:08.733Z,10.45
2019-05-15T22:22:37.564Z,10.33
2019-05-15T22:25:11.206Z,10.28
2019-05-15T22:27:39.929Z,10.18
2019-05-15T22:30:09.720Z,10.29
2019-05-15T22:32:41.650Z,9.98
2019-05-15T22:35:13.667Z,10.01
2019-05-15T22:37:41.631Z,10.06
2019-05-15T22:40:10.933Z,9.75
2019-05-15T22:42:39.490Z,9.68
2019-05-15T22:45:11.630Z,9.65
2019-05-15T22:47:39.240Z,9.70
2019-05-15T22:50:08.617Z,9.34
2019-05-15T22:52:38.872Z,9.32
2019-05-15T22:55:08.249Z,9.21
2019-05-15T22:57:38.816Z,9.22
2019-05-15T23:00:08.771Z,9.25
2019-05-15T23:02:37.298Z,9.21
2019-05-15T23:05:19.783Z,9.17
2019-05-15T23:07:38.907Z,9.18
2019-05-15T23:10:08.986Z,9.27
2019-05-15T23:12:38.235Z,9.22
2019-05-15T23:15:08.756Z,9.14
2019-05-15T23:17:38.336Z,9.32
2019-05-15T23:20:08.752Z,9.21
2019-05-15T23:22:38.519Z,9.23
2019-05-15T23:25:08.034Z,9.12
2019-05-15T23:27:38.201Z,9.11
2019-05-15T23:30:09.062Z,9.09
2019-05-15T23:32:39.143Z,8.89
2019-05-15T23:35:08.592Z,8.76
2019-05-15T23:37:39.239Z,8.95
2019-05-15T23:40:08.816Z,8.66
2019-05-15T23:42:38.935Z,8.84
2019-05-15T23:45:08.297Z,8.89
2019-05-15T23:47:38.340Z,8.99
2019-05-15T23:50:07.636Z,9.09
2019-05-15T23:52:38.323Z,9.10
2019-05-15T23:55:08.601Z,9.09
2019-05-15T23:57:39.209Z,9.03
